Time;durP1;ratioP1;P1;durP2;ratioP2;P2;SDS_P1;SDS_P2;PMS_P1;PMS_P2;Temp;Humidity;BMP_temperature;BMP_pressure;BME280_temperature;BME280_humidity;BME280_pressure;Samples;Min_cycle;Max_cycle;Signal;HPM_P1;HPM_P2
2022/09/05 00:02:00;;;;;;;4.93;2.30;;;18.90;99.90;;;;;;4996733;28;20463;-52
2022/09/05 00:04:45;;;;;;;3.57;2.60;;;18.90;99.90;;;;;;4995873;28;20026;-52
2022/09/05 00:07:39;;;;;;;4.57;2.40;;;18.90;99.90;;;;;;4995091;28;20045;-52
2022/09/05 00:10:09;;;;;;;3.72;2.42;;;18.80;99.90;;;;;;4996293;28;20054;-52
2022/09/05 00:12:36;;;;;;;4.93;2.53;;;18.90;99.90;;;;;;4996267;28;20034;-52
2022/09/05 00:15:22;;;;;;;5.88;2.53;;;18.90;99.90;;;;;;4996624;28;20420;-52
2022/09/05 00:18:24;;;;;;;8.73;2.80;;;18.70;99.90;;;;;;4995711;28;20030;-52
2022/09/05 00:21:20;;;;;;;6.07;2.42;;;18.60;99.90;;;;;;4996115;28;20028;-52
2022/09/05 00:23:53;;;;;;;6.70;2.83;;;18.50;99.90;;;;;;4994583;28;20045;-52
2022/09/05 00:26:33;;;;;;;3.17;2.00;;;18.40;99.90;;;;;;4995366;28;20066;-52
2022/09/05 00:29:16;;;;;;;4.50;2.47;;;18.40;99.90;;;;;;4996058;28;20026;-52
2022/09/05 00:31:57;;;;;;;4.38;2.17;;;18.40;99.90;;;;;;4996195;28;20038;-52
2022/09/05 00:34:44;;;;;;;4.28;2.40;;;18.50;99.90;;;;;;4995772;28;20054;-53
2022/09/05 00:37:10;;;;;;;4.07;2.40;;;18.60;99.90;;;;;;4995882;28;20081;-54
2022/09/05 00:39:39;;;;;;;2.85;2.22;;;18.50;99.90;;;;;;4996042;28;20503;-53
2022/09/05 00:42:13;;;;;;;4.30;2.67;;;18.50;99.90;;;;;;4996012;28;20070;-52
2022/09/05 00:45:00;;;;;;;4.55;2.40;;;18.50;99.90;;;;;;4995995;28;20057;-53
2022/09/05 00:47:40;;;;;;;7.82;2.67;;;18.50;99.90;;;;;;4995819;28;20061;-52
2022/09/05 00:50:14;;;;;;;5.35;2.55;;;18.60;99.90;;;;;;4995496;28;20037;-52
2022/09/05 00:52:56;;;;;;;4.20;2.67;;;18.40;99.90;;;;;;4995708;28;20557;-52
2022/09/05 00:55:38;;;;;;;4.90;2.60;;;18.30;99.90;;;;;;4995708;28;20058;-52
2022/09/05 00:58:41;;;;;;;8.48;2.45;;;18.30;99.90;;;;;;4995708;28;20503;-52
2022/09/05 01:01:30;;;;;;;6.85;2.97;;;18.40;99.90;;;;;;4995053;28;20030;-53
2022/09/05 01:04:35;;;;;;;5.40;2.30;;;18.40;99.90;;;;;;4994554;28;20030;-51
2022/09/05 01:07:18;;;;;;;3.13;2.35;;;18.60;99.90;;;;;;4972445;28;20039;-51
2022/09/05 01:10:04;;;;;;;4.68;2.35;;;18.60;99.90;;;;;;4995553;28;20423;-51
2022/09/05 01:12:49;;;;;;;5.10;2.35;;;18.50;99.90;;;;;;4995388;28;20038;-52
2022/09/05 01:15:42;;;;;;;2.95;2.45;;;18.50;99.90;;;;;;4994715;28;20042;-52
2022/09/05 01:18:13;;;;;;;4.32;2.20;;;18.40;99.90;;;;;;4995608;28;20068;-53
2022/09/05 01:21:11;;;;;;;4.65;2.45;;;18.40;99.90;;;;;;4995173;28;20030;-51
2022/09/05 01:24:06;;;;;;;5.05;2.42;;;18.40;99.90;;;;;;4995056;28;20034;-52
2022/09/05 01:26:41;;;;;;;3.95;2.50;;;18.30;99.90;;;;;;4984403;28;20410;-53
2022/09/05 01:29:24;;;;;;;4.43;2.78;;;18.30;99.90;;;;;;4994365;28;20033;-52
2022/09/05 01:32:16;;;;;;;4.18;2.13;;;18.40;99.90;;;;;;4994600;28;20113;-53
2022/09/05 01:35:01;;;;;;;7.03;2.00;;;18.30;99.90;;;;;;4994656;28;20018;-52
2022/09/05 01:38:17;;;;;;;5.93;2.47;;;18.20;99.90;;;;;;4994645;28;20042;-52
2022/09/05 01:40:46;;;;;;;3.70;2.10;;;18.10;99.90;;;;;;4934186;29;20047;-52
2022/09/05 01:43:35;;;;;;;3.58;2.40;;;18.00;99.90;;;;;;4989742;28;20047;-53
2022/09/05 01:46:22;;;;;;;6.68;2.45;;;18.00;99.90;;;;;;4994317;28;20030;-53
2022/09/05 01:48:56;;;;;;;4.93;2.30;;;18.00;99.90;;;;;;4994739;28;20077;-52
2022/09/05 01:51:28;;;;;;;4.65;2.63;;;18.10;99.90;;;;;;4994820;28;20022;-52
2022/09/05 01:54:34;;;;;;;4.05;2.35;;;18.20;99.90;;;;;;4994547;28;20022;-53
2022/09/05 01:57:14;;;;;;;3.20;2.25;;;18.10;99.90;;;;;;4994038;28;20066;-52
2022/09/05 01:59:59;;;;;;;4.75;3.10;;;18.20;99.90;;;;;;4994715;28;20093;-52
2022/09/05 02:02:40;;;;;;;4.00;2.25;;;18.20;99.90;;;;;;4994405;28;20030;-52
2022/09/05 02:05:05;;;;;;;5.65;2.60;;;18.10;99.90;;;;;;4994603;28;20050;-52
2022/09/05 02:07:49;;;;;;;5.43;2.42;;;18.00;99.90;;;;;;4994704;28;20137;-52
2022/09/05 02:10:27;;;;;;;4.95;2.70;;;17.90;99.90;;;;;;4993843;28;20018;-52
2022/09/05 02:13:16;;;;;;;4.75;2.55;;;18.00;99.90;;;;;;4994236;28;20022;-52
2022/09/05 02:16:11;;;;;;;5.05;2.88;;;18.00;99.90;;;;;;4993967;28;20026;-52
2022/09/05 02:18:51;;;;;;;3.90;2.88;;;17.90;99.90;;;;;;4966693;28;20042;-52
2022/09/05 02:21:32;;;;;;;4.82;2.90;;;18.00;99.90;;;;;;4994234;28;20030;-52
2022/09/05 02:24:21;;;;;;;4.22;2.92;;;18.00;99.90;;;;;;4994135;28;20038;-52
2022/09/05 02:27:06;;;;;;;5.25;3.17;;;18.00;99.90;;;;;;4994254;28;20423;-52
2022/09/05 02:29:42;;;;;;;7.50;3.17;;;17.90;99.90;;;;;;4993448;28;20510;-52
2022/09/05 02:32:22;;;;;;;3.42;2.83;;;18.00;99.90;;;;;;4994210;28;20038;-52
2022/09/05 02:35:21;;;;;;;6.50;2.78;;;18.10;99.90;;;;;;4993755;28;20101;-52
2022/09/05 02:37:56;;;;;;;11.23;2.88;;;18.00;99.90;;;;;;4994114;28;20042;-52
2022/09/05 02:40:40;;;;;;;5.07;2.85;;;18.10;99.90;;;;;;4993853;28;20022;-52
2022/09/05 02:43:26;;;;;;;7.78;2.70;;;18.00;99.90;;;;;;4993697;28;20125;-51
2022/09/05 02:46:03;;;;;;;5.32;3.03;;;18.00;99.90;;;;;;4993730;28;20038;-51
2022/09/05 02:48:51;;;;;;;5.10;2.80;;;18.00;99.90;;;;;;4993560;28;20450;-52
2022/09/05 02:51:39;;;;;;;5.32;3.13;;;18.00;99.90;;;;;;4993816;28;20054;-54
2022/09/05 02:54:12;;;;;;;5.38;2.80;;;18.10;99.90;;;;;;4993948;28;20024;-51
2022/09/05 02:56:56;;;;;;;6.18;2.80;;;18.20;99.90;;;;;;4992023;28;20109;-51
2022/09/05 02:59:46;;;;;;;5.15;2.97;;;18.20;99.90;;;;;;4992106;28;20054;-51
2022/09/05 03:02:28;;;;;;;5.95;3.08;;;18.10;99.90;;;;;;4992231;28;20030;-52
2022/09/05 03:05:13;;;;;;;9.23;3.00;;;18.10;99.90;;;;;;4992520;28;20037;-51
2022/09/05 03:08:00;;;;;;;4.88;2.90;;;18.10;99.90;;;;;;4992626;28;20122;-51
2022/09/05 03:10:57;;;;;;;5.40;2.80;;;18.10;99.90;;;;;;4991806;28;20026;-51
2022/09/05 03:13:41;;;;;;;6.10;2.97;;;18.00;99.90;;;;;;4992319;28;20056;-51
2022/09/05 03:16:46;;;;;;;3.70;2.88;;;18.00;99.90;;;;;;4992598;28;20042;-51
2022/09/05 03:19:33;;;;;;;4.88;3.20;;;18.00;99.90;;;;;;4992986;28;20042;-51
2022/09/05 03:22:21;;;;;;;4.68;3.10;;;18.10;99.90;;;;;;4993281;28;20536;-51
2022/09/05 03:25:40;;;;;;;6.85;3.10;;;18.20;99.90;;;;;;4992085;28;20153;-51
2022/09/05 03:28:18;;;;;;;5.22;3.03;;;18.20;99.90;;;;;;4935241;29;20130;-55
2022/09/05 03:31:14;;;;;;;5.75;3.00;;;18.00;99.90;;;;;;4995601;28;20031;-51
2022/09/05 03:34:04;;;;;;;7.20;3.15;;;18.00;99.90;;;;;;4995870;28;20037;-51
2022/09/05 03:36:45;;;;;;;5.22;3.40;;;18.00;99.90;;;;;;4996073;28;20030;-51
2022/09/05 03:39:39;;;;;;;3.83;3.17;;;18.00;99.90;;;;;;4994779;28;20092;-51
2022/09/05 03:42:23;;;;;;;5.30;3.10;;;18.00;99.90;;;;;;4996074;28;20030;-51
2022/09/05 03:45:30;;;;;;;4.07;3.13;;;17.90;99.90;;;;;;4996202;28;20027;-51
2022/09/05 03:48:11;;;;;;;4.85;3.08;;;17.90;99.90;;;;;;4936147;29;20051;-52
2022/09/05 03:51:07;;;;;;;6.75;3.20;;;18.10;99.90;;;;;;4991666;28;20132;-51
2022/09/05 03:53:43;;;;;;;3.42;2.80;;;18.10;99.90;;;;;;4942473;28;20039;-52
2022/09/05 03:56:18;;;;;;;6.05;3.28;;;18.10;99.90;;;;;;4994733;28;20044;-52
2022/09/05 03:59:14;;;;;;;7.93;3.20;;;18.10;99.90;;;;;;4994833;28;20032;-52
2022/09/05 04:01:46;;;;;;;6.60;3.00;;;18.00;99.90;;;;;;4994900;28;20045;-52
2022/09/05 04:04:42;;;;;;;5.10;2.92;;;18.00;99.90;;;;;;4995690;28;20034;-52
2022/09/05 04:07:39;;;;;;;6.65;3.45;;;18.10;99.90;;;;;;4995840;28;20121;-52
2022/09/05 04:10:25;;;;;;;7.05;3.40;;;18.10;99.90;;;;;;4990771;28;20046;-52
2022/09/05 04:13:25;;;;;;;4.50;3.08;;;18.10;99.90;;;;;;4995165;28;20121;-52
2022/09/05 04:16:04;;;;;;;5.72;2.90;;;18.10;99.90;;;;;;4995720;28;20022;-52
2022/09/05 04:18:39;;;;;;;5.35;2.83;;;18.20;99.90;;;;;;4995526;28;20026;-52
2022/09/05 04:21:25;;;;;;;6.50;3.30;;;18.30;99.90;;;;;;4995163;28;20026;-51
2022/09/05 04:24:25;;;;;;;6.18;3.25;;;18.30;99.90;;;;;;4995266;28;20038;-52
2022/09/05 04:27:09;;;;;;;7.63;3.28;;;18.40;99.90;;;;;;4995170;28;20037;-51
2022/09/05 04:30:11;;;;;;;4.55;2.88;;;18.40;99.90;;;;;;4995121;28;20526;-51
2022/09/05 04:32:52;;;;;;;7.13;3.10;;;18.40;99.90;;;;;;4994649;28;20034;-51
2022/09/05 04:35:45;;;;;;;8.38;3.40;;;18.40;99.90;;;;;;4994565;28;20027;-51
2022/09/05 04:38:32;;;;;;;4.35;3.00;;;18.30;99.90;;;;;;4994509;28;20109;-51
2022/09/05 04:41:08;;;;;;;4.93;3.45;;;18.30;99.90;;;;;;4995083;28;20027;-51
2022/09/05 04:43:58;;;;;;;6.18;3.20;;;18.30;99.90;;;;;;4994318;28;20034;-51
2022/09/05 04:46:52;;;;;;;6.43;3.42;;;18.10;99.90;;;;;;4995020;28;20034;-52
2022/09/05 04:49:24;;;;;;;10.18;3.45;;;18.20;99.90;;;;;;4995035;28;20041;-51
2022/09/05 04:52:08;;;;;;;5.68;2.85;;;18.10;99.90;;;;;;4995308;28;20089;-51
2022/09/05 04:54:44;;;;;;;4.72;3.40;;;18.10;99.90;;;;;;4994662;28;20097;-52
2022/09/05 04:57:35;;;;;;;7.03;3.08;;;18.10;99.90;;;;;;4994131;28;20066;-51
2022/09/05 05:00:07;;;;;;;5.72;3.47;;;18.10;99.90;;;;;;4986374;28;20224;-50
2022/09/05 05:02:35;;;;;;;6.32;3.13;;;18.00;99.90;;;;;;4994372;28;20054;-50
2022/09/05 05:05:20;;;;;;;6.35;3.60;;;17.90;99.90;;;;;;4993780;28;20022;-51
2022/09/05 05:08:21;;;;;;;7.35;3.60;;;17.90;99.90;;;;;;4993880;28;20074;-50
2022/09/05 05:11:06;;;;;;;6.78;3.60;;;17.70;99.90;;;;;;4993687;28;20513;-51
2022/09/05 05:13:56;;;;;;;6.43;3.40;;;17.70;99.90;;;;;;4993530;28;20034;-50
2022/09/05 05:16:29;;;;;;;7.60;3.90;;;17.70;99.90;;;;;;4993197;28;20050;-50
2022/09/05 05:19:16;;;;;;;13.55;4.43;;;17.60;99.90;;;;;;4994264;28;20033;-51
2022/09/05 05:21:50;;;;;;;5.70;3.70;;;17.70;99.90;;;;;;4993732;28;20034;-51
2022/09/05 05:24:26;;;;;;;5.95;3.47;;;17.80;99.90;;;;;;4993529;28;20026;-51
2022/09/05 05:27:16;;;;;;;6.43;3.53;;;17.80;99.90;;;;;;4994395;28;20030;-52
2022/09/05 05:30:03;;;;;;;16.65;4.75;;;18.00;99.90;;;;;;4993585;28;20026;-51
2022/09/05 05:32:42;;;;;;;7.35;3.35;;;18.40;99.90;;;;;;4993811;28;20038;-51
2022/09/05 05:35:13;;;;;;;6.43;3.40;;;18.50;99.90;;;;;;4994035;28;20120;-52
2022/09/05 05:38:13;;;;;;;5.25;3.13;;;18.50;99.90;;;;;;4992989;28;20507;-51
2022/09/05 05:40:45;;;;;;;7.22;3.50;;;18.50;99.90;;;;;;4990346;28;20043;-50
2022/09/05 05:43:20;;;;;;;5.82;3.40;;;18.60;99.90;;;;;;4994934;28;20064;-51
2022/09/05 05:45:58;;;;;;;4.53;3.13;;;18.80;99.90;;;;;;4994739;28;20031;-51
2022/09/05 05:48:35;;;;;;;6.72;3.00;;;19.00;99.90;;;;;;4994697;28;20057;-50
2022/09/05 05:51:20;;;;;;;7.53;3.47;;;19.10;99.90;;;;;;4994381;28;20033;-51
2022/09/05 05:54:37;;;;;;;7.88;3.60;;;19.20;99.90;;;;;;4993560;28;20503;-51
2022/09/05 05:57:15;;;;;;;5.25;2.72;;;19.30;99.90;;;;;;4958135;28;20053;-51
2022/09/05 06:00:13;;;;;;;10.18;3.70;;;19.40;99.90;;;;;;4990521;28;20374;-51
2022/09/05 06:03:07;;;;;;;6.32;3.08;;;19.60;99.90;;;;;;4984648;28;20046;-52
2022/09/05 06:06:15;;;;;;;5.13;3.33;;;19.70;99.90;;;;;;4982254;28;20034;-52
2022/09/05 06:09:10;;;;;;;7.80;3.35;;;19.70;99.90;;;;;;4977317;28;20042;-52
2022/09/05 06:12:10;;;;;;;8.15;3.30;;;19.90;99.90;;;;;;4979891;28;20097;-52
2022/09/05 06:15:13;;;;;;;6.20;3.00;;;20.00;99.90;;;;;;4979694;28;20049;-52
2022/09/05 06:18:16;;;;;;;9.90;3.22;;;19.90;99.90;;;;;;4974741;28;20266;-52
2022/09/05 06:21:17;;;;;;;7.30;3.10;;;19.90;99.90;;;;;;4971062;28;20042;-52
2022/09/05 06:23:58;;;;;;;5.55;2.80;;;19.90;99.90;;;;;;4947671;28;20065;-52
2022/09/05 06:26:35;;;;;;;6.93;2.92;;;20.00;99.90;;;;;;4978637;28;20041;-52
2022/09/05 06:29:46;;;;;;;4.90;2.70;;;20.10;99.90;;;;;;4972671;28;20082;-51
2022/09/05 06:32:20;;;;;;;6.57;2.70;;;20.10;99.90;;;;;;4952490;28;20066;-51
2022/09/05 06:34:55;;;;;;;7.63;3.10;;;20.20;99.90;;;;;;4979848;28;20021;-52
2022/09/05 06:37:49;;;;;;;5.28;2.80;;;20.20;99.90;;;;;;4978930;28;20053;-52
2022/09/05 06:40:34;;;;;;;4.15;2.92;;;20.20;99.90;;;;;;4977614;28;20387;-51
2022/09/05 06:43:14;;;;;;;7.18;2.75;;;20.20;99.90;;;;;;4975855;28;20035;-52
2022/09/05 06:46:17;;;;;;;5.72;3.20;;;20.30;99.90;;;;;;4974257;28;20027;-52
2022/09/05 06:48:43;;;;;;;;;;;20.50;99.90;;;;;;4980721;28;20030;-52
2022/09/05 06:51:26;;;;;;;5.10;2.92;;;20.60;99.90;;;;;;4981924;28;20924;-52
2022/09/05 06:53:57;;;;;;;5.88;2.70;;;21.00;99.90;;;;;;4976863;28;20039;-52
2022/09/05 06:56:26;;;;;;;5.90;2.47;;;21.00;99.90;;;;;;4984719;28;20034;-52
2022/09/05 06:59:19;;;;;;;6.47;3.08;;;21.10;99.90;;;;;;4979111;28;20038;-52
2022/09/05 07:01:55;;;;;;;6.90;2.63;;;21.30;99.90;;;;;;4985818;28;20046;-52
2022/09/05 07:04:33;;;;;;;7.63;2.70;;;21.40;99.90;;;;;;4981452;28;20046;-52
2022/09/05 07:07:21;;;;;;;6.90;2.67;;;21.40;99.90;;;;;;4981782;28;20034;-52
2022/09/05 07:10:02;;;;;;;6.45;2.60;;;21.40;99.90;;;;;;4984651;28;20149;-52
2022/09/05 07:12:30;;;;;;;8.57;2.70;;;21.50;99.90;;;;;;4984119;28;20038;-52
2022/09/05 07:15:35;;;;;;;5.07;2.78;;;21.50;99.90;;;;;;4985494;28;20034;-52
2022/09/05 07:18:33;;;;;;;6.22;2.40;;;21.70;99.90;;;;;;4984460;28;20678;-53
2022/09/05 07:21:27;;;;;;;5.75;2.10;;;21.60;99.90;;;;;;4982068;28;20026;-53
2022/09/05 07:24:22;;;;;;;5.30;2.60;;;21.60;99.90;;;;;;4974092;28;20088;-53
2022/09/05 07:26:49;;;;;;;3.88;2.28;;;21.70;99.90;;;;;;4982636;28;20034;-51
2022/09/05 07:29:19;;;;;;;7.70;2.55;;;21.60;99.90;;;;;;4982324;28;20034;-53
2022/09/05 07:31:50;;;;;;;13.75;2.67;;;21.70;99.90;;;;;;4982220;28;20034;-52
2022/09/05 07:34:29;;;;;;;4.20;2.10;;;21.90;99.90;;;;;;4981698;28;20023;-52
2022/09/05 07:36:57;;;;;;;4.95;2.17;;;22.60;99.90;;;;;;4981279;28;20035;-52
2022/09/05 07:39:30;;;;;;;4.40;2.00;;;22.70;99.90;;;;;;4981088;28;20152;-52
2022/09/05 07:41:59;;;;;;;;;;;23.30;99.90;;;;;;4980829;28;20096;-52
2022/09/05 07:44:29;;;;;;;4.63;2.00;;;24.10;99.90;;;;;;4981316;28;19994;-52
2022/09/05 07:47:06;;;;;;;5.40;2.08;;;25.20;99.90;;;;;;4984985;28;20033;-52
2022/09/05 07:49:36;;;;;;;7.38;2.30;;;25.30;99.90;;;;;;4979950;28;20022;-53
2022/09/05 07:52:16;;;;;;;7.25;2.15;;;26.30;99.90;;;;;;4983806;28;20053;-53
2022/09/05 07:54:44;;;;;;;6.80;1.75;;;28.10;98.50;;;;;;4982111;28;20033;-53
2022/09/05 07:57:16;;;;;;;6.22;1.98;;;28.10;96.10;;;;;;4984094;28;20082;-54
2022/09/05 07:59:45;;;;;;;4.68;1.80;;;27.60;97.40;;;;;;4982762;28;20480;-53
2022/09/05 08:02:12;;;;;;;7.30;1.88;;;27.90;96.90;;;;;;4974213;28;20031;-53
2022/09/05 08:04:40;;;;;;;5.38;1.65;;;28.30;96.10;;;;;;4975545;28;20034;-53
2022/09/05 08:07:13;;;;;;;5.90;1.70;;;28.80;93.80;;;;;;4984546;28;20038;-53
2022/09/05 08:09:41;;;;;;;2.67;1.50;;;28.60;92.90;;;;;;4976209;28;20105;-53
2022/09/05 08:12:31;;;;;;;8.90;1.90;;;27.70;94.90;;;;;;4975298;28;20039;-53
2022/09/05 08:15:07;;;;;;;8.43;1.70;;;27.50;94.50;;;;;;4975117;28;20030;-53
2022/09/05 08:18:00;;;;;;;5.43;1.60;;;27.90;93.90;;;;;;4975041;28;20532;-53
2022/09/05 08:20:29;;;;;;;6.70;1.40;;;28.00;93.80;;;;;;4985034;28;20030;-54
2022/09/05 08:22:58;;;;;;;6.75;1.52;;;28.40;92.80;;;;;;4981920;28;20117;-54
2022/09/05 08:25:34;;;;;;;9.65;1.75;;;28.60;93.20;;;;;;4982253;28;20033;-54
2022/09/05 08:28:05;;;;;;;5.35;1.50;;;28.50;93.30;;;;;;4974995;28;20034;-54
2022/09/05 08:30:43;;;;;;;6.80;1.85;;;29.30;92.60;;;;;;4984257;28;20045;-54
2022/09/05 08:33:23;;;;;;;5.53;1.48;;;29.70;90.90;;;;;;4975663;28;20480;-54
2022/09/05 08:35:54;;;;;;;7.30;1.40;;;29.80;90.20;;;;;;4976967;28;20030;-54
2022/09/05 08:38:21;;;;;;;4.68;1.50;;;29.90;90.00;;;;;;4979327;28;20112;-54
2022/09/05 08:40:57;;;;;;;4.13;1.35;;;30.10;89.00;;;;;;4976295;28;20062;-55
2022/09/05 08:43:38;;;;;;;8.85;1.60;;;30.00;89.50;;;;;;4979945;28;20096;-55
2022/09/05 08:46:36;;;;;;;4.53;1.73;;;29.50;90.30;;;;;;4984743;28;20038;-53
2022/09/05 08:49:20;;;;;;;7.60;1.50;;;28.40;92.00;;;;;;4973942;28;20050;-52
2022/09/05 08:51:52;;;;;;;6.10;1.50;;;27.90;92.20;;;;;;4981501;28;20038;-55
2022/09/05 08:54:28;;;;;;;4.65;1.70;;;27.30;93.60;;;;;;4983474;28;20049;-55
2022/09/05 08:57:07;;;;;;;6.88;1.77;;;27.50;94.30;;;;;;4979365;28;20081;-55
2022/09/05 08:59:43;;;;;;;4.50;1.40;;;28.50;93.00;;;;;;4978503;28;20042;-53
2022/09/05 09:02:30;;;;;;;2.08;1.10;;;29.70;91.00;;;;;;4974630;28;20763;-55
2022/09/05 09:05:06;;;;;;;4.05;1.60;;;29.80;90.00;;;;;;4981094;28;20141;-53
2022/09/05 09:07:37;;;;;;;2.40;1.45;;;28.30;92.50;;;;;;4981985;28;20789;-53
2022/09/05 09:10:10;;;;;;;5.03;1.25;;;28.70;92.50;;;;;;4979841;28;20034;-53
2022/09/05 09:13:05;;;;;;;6.00;1.63;;;29.20;91.00;;;;;;4979822;28;20559;-53
2022/09/05 09:15:37;;;;;;;2.58;1.63;;;29.50;90.60;;;;;;4982347;28;20026;-53
2022/09/05 09:18:14;;;;;;;4.90;1.20;;;30.50;88.60;;;;;;4978647;28;20125;-52
2022/09/05 09:20:52;;;;;;;4.78;1.40;;;30.30;87.00;;;;;;4978292;28;20053;-52
2022/09/05 09:23:27;;;;;;;2.05;1.35;;;30.00;86.20;;;;;;4975553;28;20083;-52
2022/09/05 09:26:10;;;;;;;3.22;1.20;;;29.80;88.00;;;;;;4979463;28;20092;-54
2022/09/05 09:28:44;;;;;;;2.30;1.23;;;30.00;86.90;;;;;;4974285;28;20044;-53
2022/09/05 09:31:21;;;;;;;2.58;1.30;;;30.40;84.90;;;;;;4977824;28;20836;-52
2022/09/05 09:34:09;;;;;;;2.45;1.20;;;30.40;84.70;;;;;;4980470;28;20094;-56
2022/09/05 09:37:08;;;;;;;1.55;1.20;;;31.40;82.90;;;;;;4978914;28;20137;-55
2022/09/05 09:39:58;;;;;;;3.40;1.27;;;31.60;80.30;;;;;;4980317;28;20038;-52
2022/09/05 09:42:50;;;;;;;1.30;1.20;;;32.10;78.80;;;;;;4974579;28;20480;-53
2022/09/05 09:45:34;;;;;;;1.60;1.13;;;31.90;77.90;;;;;;4983185;28;20117;-53
2022/09/05 09:48:06;;;;;;;2.35;1.30;;;32.10;77.80;;;;;;4980319;28;20034;-53
2022/09/05 09:50:59;;;;;;;2.42;1.27;;;31.90;77.40;;;;;;4978489;28;20125;-53
2022/09/05 09:53:44;;;;;;;2.88;1.40;;;30.90;79.40;;;;;;4979486;28;20052;-53
2022/09/05 09:56:47;;;;;;;1.85;1.52;;;30.10;82.60;;;;;;4980152;28;20046;-52
2022/09/05 09:59:50;;;;;;;1.92;1.35;;;30.00;83.70;;;;;;4980071;28;20396;-53
2022/09/05 10:02:35;;;;;;;2.13;1.30;;;30.30;82.30;;;;;;4980751;28;20034;-52
2022/09/05 10:05:22;;;;;;;4.25;1.33;;;30.20;82.10;;;;;;4981645;28;20034;-52
2022/09/05 10:08:07;;;;;;;8.57;1.55;;;30.00;83.60;;;;;;4974540;28;20389;-54
2022/09/05 10:10:48;;;;;;;2.13;1.50;;;30.00;84.40;;;;;;4981068;28;21061;-54
2022/09/05 10:13:33;;;;;;;3.35;1.17;;;30.80;83.20;;;;;;4971983;28;21596;-54
2022/09/05 10:16:11;;;;;;;4.93;1.30;;;31.30;80.70;;;;;;4974597;28;20034;-55
2022/09/05 10:18:48;;;;;;;5.60;1.27;;;32.90;76.90;;;;;;4981577;28;20048;-55
2022/09/05 10:21:32;;;;;;;5.28;1.20;;;33.20;73.90;;;;;;4980310;28;20042;-56
2022/09/05 10:24:23;;;;;;;2.67;1.10;;;33.20;74.40;;;;;;4972742;28;20049;-55
2022/09/05 10:27:10;;;;;;;3.17;1.40;;;33.20;74.40;;;;;;4977598;28;20044;-54
2022/09/05 10:30:12;;;;;;;4.10;1.50;;;33.60;72.10;;;;;;4977188;28;20027;-55
2022/09/05 10:32:56;;;;;;;6.05;1.58;;;32.80;74.10;;;;;;4975228;28;20124;-55
2022/09/05 10:35:38;;;;;;;3.10;1.10;;;33.20;72.00;;;;;;4978944;28;20087;-55
2022/09/05 10:38:34;;;;;;;1.55;1.20;;;34.50;70.00;;;;;;4979370;28;20125;-56
2022/09/05 10:41:08;;;;;;;1.60;1.10;;;34.70;66.40;;;;;;4972588;28;20369;-55
2022/09/05 10:43:45;;;;;;;2.88;1.27;;;33.60;69.20;;;;;;4978765;28;20034;-55
2022/09/05 10:46:13;;;;;;;2.75;1.20;;;33.60;69.20;;;;;;4979264;28;20112;-55
2022/09/05 10:48:47;;;;;;;3.97;1.10;;;33.30;69.10;;;;;;4977859;28;20077;-55
2022/09/05 10:51:19;;;;;;;4.43;1.20;;;32.70;70.80;;;;;;4983206;28;20022;-55
2022/09/05 10:54:07;;;;;;;5.40;1.40;;;32.50;71.00;;;;;;4979383;28;20052;-54
2022/09/05 10:56:46;;;;;;;3.85;1.30;;;33.00;70.20;;;;;;4941022;28;20112;-59
2022/09/05 10:59:57;;;;;;;5.80;1.23;;;32.50;70.20;;;;;;4978800;28;20030;-54
2022/09/05 11:02:26;;;;;;;2.03;1.20;;;31.90;72.40;;;;;;4955776;28;20100;-55
2022/09/05 11:05:23;;;;;;;3.42;1.45;;;31.30;73.20;;;;;;4975722;28;20695;-54
2022/09/05 11:08:25;;;;;;;4.60;1.42;;;31.50;74.00;;;;;;4976302;28;21040;-53
2022/09/05 11:11:13;;;;;;;2.42;1.42;;;31.80;72.80;;;;;;4970981;28;20744;-56
2022/09/05 11:13:46;;;;;;;2.97;1.33;;;32.90;70.40;;;;;;4971817;28;20038;-53
2022/09/05 11:16:21;;;;;;;3.22;1.30;;;32.30;70.50;;;;;;4981569;28;20026;-53
2022/09/05 11:18:57;;;;;;;3.83;1.30;;;33.10;70.40;;;;;;4977108;28;20314;-53
2022/09/05 11:22:00;;;;;;;3.88;1.23;;;33.00;69.20;;;;;;4977530;28;20428;-53
2022/09/05 11:24:29;;;;;;;2.67;1.30;;;33.50;67.80;;;;;;4974772;28;20081;-55
2022/09/05 11:26:57;;;;;;;4.40;1.40;;;34.10;66.00;;;;;;4969765;28;20035;-55
2022/09/05 11:29:46;;;;;;;2.78;1.30;;;34.50;66.20;;;;;;4978744;28;20447;-53
2022/09/05 11:32:22;;;;;;;1.83;1.40;;;35.00;64.60;;;;;;4976115;28;20369;-56
2022/09/05 11:34:48;;;;;;;4.50;1.48;;;35.10;64.30;;;;;;4976357;28;20612;-53
2022/09/05 11:37:44;;;;;;;4.22;1.10;;;35.00;64.40;;;;;;4972694;28;20038;-53
2022/09/05 11:40:18;;;;;;;3.28;1.02;;;35.70;63.60;;;;;;4974797;28;20391;-53
2022/09/05 11:43:14;;;;;;;6.30;1.40;;;36.00;62.90;;;;;;4974567;28;20341;-53
2022/09/05 11:46:07;;;;;;;1.77;1.20;;;36.70;62.00;;;;;;4979652;28;20484;-56
2022/09/05 11:48:55;;;;;;;4.00;1.10;;;36.20;61.00;;;;;;4975739;28;20040;-53
2022/09/05 11:51:46;;;;;;;4.05;1.23;;;35.80;61.90;;;;;;4977760;28;20054;-54
2022/09/05 11:54:36;;;;;;;2.30;1.25;;;37.10;59.70;;;;;;4980037;28;20443;-54
2022/09/05 11:57:43;;;;;;;3.22;1.33;;;37.10;59.50;;;;;;4982978;28;20058;-55
2022/09/05 12:00:18;;;;;;;7.15;1.40;;;37.20;58.80;;;;;;4967257;28;20406;-55
2022/09/05 12:02:59;;;;;;;20.88;2.08;;;38.10;57.60;;;;;;4970688;28;20065;-56
2022/09/05 12:06:02;;;;;;;10.32;1.60;;;38.10;56.90;;;;;;4982802;28;20680;-55
2022/09/05 12:08:54;;;;;;;7.80;1.40;;;38.50;55.70;;;;;;4979203;28;20033;-55
2022/09/05 12:12:05;;;;;;;13.68;1.70;;;38.80;55.10;;;;;;4981553;28;20034;-56
2022/09/05 12:14:43;;;;;;;5.53;1.45;;;39.20;54.80;;;;;;4973065;28;20439;-56
2022/09/05 12:17:24;;;;;;;3.53;1.27;;;40.50;53.10;;;;;;4977468;28;20114;-55
2022/09/05 12:19:53;;;;;;;5.18;1.42;;;40.20;52.30;;;;;;4981587;28;20033;-55
2022/09/05 12:22:28;;;;;;;6.88;1.30;;;40.10;52.10;;;;;;4978036;28;20285;-55
2022/09/05 12:25:24;;;;;;;3.17;1.40;;;39.70;51.30;;;;;;4977873;28;20030;-55
2022/09/05 12:28:06;;;;;;;5.63;1.30;;;38.60;52.70;;;;;;4981528;28;20038;-53
2022/09/05 12:30:36;;;;;;;5.03;1.17;;;38.60;53.10;;;;;;4975829;28;20072;-53
2022/09/05 12:33:11;;;;;;;2.67;1.17;;;38.60;53.20;;;;;;4979053;28;20566;-52
2022/09/05 12:35:41;;;;;;;3.53;1.45;;;38.60;52.80;;;;;;4981186;28;20068;-56
2022/09/05 12:38:29;;;;;;;4.87;1.27;;;38.20;52.30;;;;;;4980677;28;20566;-54
2022/09/05 12:41:06;;;;;;;1.45;0.90;;;36.90;53.00;;;;;;4982376;28;20045;-58
2022/09/05 12:43:34;;;;;;;2.58;1.15;;;35.20;55.30;;;;;;4981581;28;20034;-56
2022/09/05 12:46:32;;;;;;;5.13;1.52;;;34.50;56.90;;;;;;4979305;28;20411;-57
2022/09/05 12:49:05;;;;;;;5.30;1.50;;;34.90;56.90;;;;;;4975878;28;20220;-58
2022/09/05 12:51:35;;;;;;;1.88;1.10;;;34.20;56.80;;;;;;4974683;28;20835;-57
2022/09/05 12:54:12;;;;;;;2.70;1.03;;;34.30;56.00;;;;;;4981760;28;20038;-58
2022/09/05 12:56:59;;;;;;;5.22;1.27;;;33.90;57.10;;;;;;4982006;28;20053;-58
2022/09/05 12:59:27;;;;;;;6.35;1.33;;;33.70;58.40;;;;;;4978227;28;20682;-58
2022/09/05 13:02:06;;;;;;;6.95;1.10;;;33.70;58.20;;;;;;4975100;28;20410;-56
2022/09/05 13:04:40;;;;;;;4.68;1.08;;;33.60;58.50;;;;;;4973872;28;20034;-55
2022/09/05 13:07:19;;;;;;;4.55;1.10;;;33.90;57.30;;;;;;4979723;28;20023;-57
2022/09/05 13:09:56;;;;;;;2.08;0.98;;;34.50;57.10;;;;;;4981025;28;20034;-56
2022/09/05 13:12:29;;;;;;;3.75;1.30;;;34.50;58.00;;;;;;4977267;28;20122;-56
2022/09/05 13:15:18;;;;;;;5.57;1.27;;;34.40;58.30;;;;;;4982787;28;20338;-56
2022/09/05 13:17:49;;;;;;;9.38;1.60;;;34.70;59.00;;;;;;4964898;28;20129;-58
2022/09/05 13:20:34;;;;;;;6.63;1.52;;;34.80;58.50;;;;;;4982129;28;20018;-56
2022/09/05 13:23:12;;;;;;;6.75;1.67;;;34.80;58.80;;;;;;4984298;28;20582;-57
2022/09/05 13:25:43;;;;;;;6.15;1.63;;;34.70;58.50;;;;;;4972516;28;20034;-58
2022/09/05 13:28:13;;;;;;;6.43;1.60;;;34.40;58.90;;;;;;4982112;28;20030;-58
2022/09/05 13:30:54;;;;;;;4.80;1.30;;;35.00;58.70;;;;;;4984416;28;20125;-58
2022/09/05 13:33:43;;;;;;;5.32;1.30;;;36.20;57.50;;;;;;4980589;28;20526;-58
2022/09/05 13:36:20;;;;;;;3.55;1.20;;;37.20;56.10;;;;;;4980014;28;20042;-59
2022/09/05 13:39:11;;;;;;;5.68;1.30;;;38.60;53.80;;;;;;4980048;28;20042;-58
2022/09/05 13:41:53;;;;;;;4.35;1.05;;;39.10;53.60;;;;;;4975047;28;20093;-58
2022/09/05 13:44:21;;;;;;;3.20;1.27;;;39.00;53.00;;;;;;4982700;28;20113;-57
2022/09/05 13:46:59;;;;;;;2.20;1.05;;;38.70;53.50;;;;;;4982529;28;20018;-59
2022/09/05 13:49:36;;;;;;;9.30;1.33;;;38.60;53.30;;;;;;4984240;28;20169;-59
2022/09/05 13:52:26;;;;;;;12.48;1.63;;;38.50;53.80;;;;;;4986177;28;20034;-59
2022/09/05 13:55:08;;;;;;;5.00;1.20;;;38.20;53.50;;;;;;4979686;28;20093;-58
2022/09/05 13:57:57;;;;;;;2.67;1.10;;;38.60;53.60;;;;;;4988061;28;20046;-59
2022/09/05 14:00:59;;;;;;;4.70;1.10;;;38.70;52.40;;;;;;4986167;28;20502;-57
2022/09/05 14:03:58;;;;;;;6.07;1.10;;;38.60;52.00;;;;;;4975616;28;20062;-58
2022/09/05 14:06:46;;;;;;;2.33;1.10;;;38.10;52.30;;;;;;4984865;28;20034;-58
2022/09/05 14:09:37;;;;;;;4.35;1.20;;;38.00;52.40;;;;;;4990710;28;20061;-58
2022/09/05 14:12:31;;;;;;;3.53;1.10;;;38.20;52.40;;;;;;4986943;28;20031;-58